Ashmont, Canada
Current Conditions -  °F | °C
As of 11:00 PM on Monday 20 Oct 2014 (Local Time) from CYOD Reporting Station
Scattered Clouds Scattered Clouds  
Wind Chill: 54°   Ceiling: Unl
Heat Index: 54°   Visibility: 15mi
Dew Point: 37°   Wind: 5mph
Humidity: 54%   Direction: 140°SE
Pressure: 29.51"   Gusts: NA
Location:  54.13°N, 111.57°W
Report Text: CYOD 210500Z 14004KT 15SM SCT250 12/03 A2951 RMK CI1 SLP005
Loading
Personal Weather Stations






























Interactive Weather Map
Tropical Storm Tracking
New forecast layout! Learn more

10-Day Weather Forecast

Advertisements
Track Severe Weather on mobile